Time;durP1;ratioP1;P1;durP2;ratioP2;P2;SDS_P1;SDS_P2;PMS_P1;PMS_P2;Temp;Humidity;BMP_temperature;BMP_pressure;BME280_temperature;BME280_humidity;BME280_pressure;Samples;Min_cycle;Max_cycle;Signal;HPM_P1;HPM_P2
2022/11/20 00:03:03;;;;;;;35.13;24.23;;;;;;;;;;9985884;28;20137;-64
2022/11/20 00:07:58;;;;;;;36.45;25.05;;;;;;;;;;9986323;28;20130;-65
2022/11/20 00:12:52;;;;;;;37.58;23.40;;;;;;;;;;9986185;28;20078;-65
2022/11/20 00:17:45;;;;;;;32.50;23.05;;;;;;;;;;9986463;28;20421;-64
2022/11/20 00:22:39;;;;;;;35.25;23.90;;;;;;;;;;9987008;28;20046;-64
2022/11/20 00:27:32;;;;;;;36.47;23.77;;;;;;;;;;9986245;28;20453;-65
2022/11/20 00:32:27;;;;;;;33.58;23.55;;;;;;;;;;9986870;28;20089;-64
2022/11/20 00:37:20;;;;;;;30.52;22.17;;;;;;;;;;9968319;28;20413;-66
2022/11/20 00:42:14;;;;;;;32.88;23.45;;;;;;;;;;9991743;28;20062;-66
2022/11/20 00:47:09;;;;;;;31.38;23.10;;;;;;;;;;9993552;28;20137;-65
2022/11/20 00:52:06;;;;;;;34.50;22.90;;;;;;;;;;9992760;28;20093;-66
2022/11/20 00:56:59;;;;;;;41.00;24.20;;;;;;;;;;9992997;28;20038;-65
2022/11/20 01:01:53;;;;;;;44.03;29.60;;;;;;;;;;9991665;28;20101;-66
2022/11/20 01:06:47;;;;;;;37.92;23.77;;;;;;;;;;9994187;28;20050;-66
2022/11/20 01:11:42;;;;;;;31.02;23.23;;;;;;;;;;9994302;28;20417;-66
2022/11/20 01:16:39;;;;;;;36.97;23.05;;;;;;;;;;9993591;28;20394;-66
2022/11/20 01:21:34;;;;;;;35.72;24.63;;;;;;;;;;9993220;28;20082;-66
2022/11/20 01:26:34;;;;;;;36.92;25.05;;;;;;;;;;9993390;28;20054;-69
2022/11/20 01:31:52;;;;;;;34.47;25.15;;;;;;;;;;9992909;28;20062;-68
2022/11/20 01:36:46;;;;;;;35.17;23.27;;;;;;;;;;9991754;28;20054;-68
2022/11/20 01:46:59;;;;;;;36.50;24.30;;;;;;;;;;9989643;28;20055;-68
2022/11/20 01:52:00;;;;;;;39.75;24.33;;;;;;;;;;9992477;28;20051;-68
2022/11/20 01:57:33;;;;;;;51.03;35.92;;;;;;;;;;9985743;28;20556;-68
2022/11/20 02:02:26;;;;;;;95.25;60.30;;;;;;;;;;9992581;28;20512;-68
2022/11/20 02:07:20;;;;;;;66.03;41.28;;;;;;;;;;9974797;28;20047;-68
2022/11/20 02:13:42;;;;;;;63.58;37.92;;;;;;;;;;9975056;28;20054;-68
2022/11/20 02:17:26;;;;;;;47.25;28.75;;;;;;;;;;9991112;28;20112;-68
2022/11/20 02:22:33;;;;;;;40.75;28.35;;;;;;;;;;9990170;28;20056;-68
2022/11/20 02:27:28;;;;;;;32.15;23.70;;;;;;;;;;9991361;28;20461;-67
2022/11/20 02:32:29;;;;;;;31.27;24.08;;;;;;;;;;9991055;28;20078;-67
2022/11/20 02:37:29;;;;;;;31.50;22.58;;;;;;;;;;9974226;28;20061;-67
2022/11/20 02:42:24;;;;;;;33.72;24.23;;;;;;;;;;9973518;28;20501;-68
2022/11/20 02:47:18;;;;;;;34.03;23.15;;;;;;;;;;9990244;28;20051;-67
2022/11/20 02:52:12;;;;;;;35.63;22.35;;;;;;;;;;9990362;28;20549;-67
2022/11/20 02:57:07;;;;;;;33.80;22.92;;;;;;;;;;9990711;28;20047;-67
2022/11/20 03:02:00;;;;;;;37.55;26.98;;;;;;;;;;9988842;28;20058;-67
2022/11/20 03:06:54;;;;;;;58.00;39.08;;;;;;;;;;9990183;28;20062;-67
2022/11/20 03:11:48;;;;;;;44.47;30.23;;;;;;;;;;9989759;28;20441;-68
2022/11/20 03:16:43;;;;;;;32.08;23.13;;;;;;;;;;9988706;28;20081;-67
2022/11/20 03:21:37;;;;;;;32.38;22.38;;;;;;;;;;9988149;28;20077;-67
2022/11/20 03:26:30;;;;;;;28.17;20.67;;;;;;;;;;9987932;28;20054;-68
2022/11/20 03:31:27;;;;;;;31.90;22.52;;;;;;;;;;9988701;28;20394;-68
2022/11/20 03:36:21;;;;;;;35.10;22.98;;;;;;;;;;9989017;28;20054;-68
2022/11/20 03:41:17;;;;;;;30.25;22.85;;;;;;;;;;9988722;28;20054;-68
2022/11/20 03:46:11;;;;;;;43.55;25.15;;;;;;;;;;9971538;28;20050;-68
2022/11/20 03:51:13;;;;;;;35.03;21.38;;;;;;;;;;9988679;28;20081;-68
2022/11/20 03:56:08;;;;;;;34.55;24.52;;;;;;;;;;9988138;28;20505;-68
2022/11/20 04:01:28;;;;;;;33.60;22.30;;;;;;;;;;9988126;28;20046;-68
2022/11/20 04:06:25;;;;;;;29.55;22.65;;;;;;;;;;9987921;28;20046;-67
2022/11/20 04:11:21;;;;;;;34.05;23.45;;;;;;;;;;9988103;28;20054;-68
2022/11/20 04:16:15;;;;;;;31.27;20.98;;;;;;;;;;9987778;28;20112;-67
2022/11/20 04:21:10;;;;;;;30.08;23.30;;;;;;;;;;9987571;28;20059;-67
2022/11/20 04:26:28;;;;;;;35.17;22.58;;;;;;;;;;9988082;28;20085;-68
2022/11/20 04:31:23;;;;;;;29.05;20.92;;;;;;;;;;9987427;28;20054;-67
2022/11/20 04:36:25;;;;;;;30.27;22.83;;;;;;;;;;9987897;28;20046;-67
2022/11/20 04:41:20;;;;;;;32.72;24.42;;;;;;;;;;9984335;28;20482;-67
2022/11/20 04:46:15;;;;;;;37.47;23.50;;;;;;;;;;9986583;28;20069;-67
2022/11/20 04:51:09;;;;;;;27.77;22.05;;;;;;;;;;9987625;28;20058;-67
2022/11/20 04:56:05;;;;;;;29.92;20.77;;;;;;;;;;9986652;28;20415;-67
2022/11/20 05:01:22;;;;;;;33.17;23.42;;;;;;;;;;9987290;28;20050;-67
2022/11/20 05:06:19;;;;;;;41.72;24.15;;;;;;;;;;9978465;28;20065;-67
2022/11/20 05:11:15;;;;;;;289.92;40.95;;;;;;;;;;9986866;28;20143;-67
2022/11/20 05:16:14;;;;;;;205.05;28.20;;;;;;;;;;9987267;28;20054;-67
2022/11/20 05:21:08;;;;;;;52.55;21.38;;;;;;;;;;9986785;28;20445;-67
2022/11/20 05:26:03;;;;;;;50.60;19.05;;;;;;;;;;9987866;28;20069;-67
2022/11/20 05:31:03;;;;;;;109.65;19.42;;;;;;;;;;9993895;28;20061;-67
2022/11/20 05:36:00;;;;;;;158.38;22.65;;;;;;;;;;9993186;28;20108;-67
2022/11/20 05:40:53;;;;;;;52.95;16.67;;;;;;;;;;9992706;28;20046;-67
2022/11/20 05:45:54;;;;;;;16.40;13.88;;;;;;;;;;9993095;28;20074;-67
2022/11/20 05:50:48;;;;;;;25.02;17.92;;;;;;;;;;9991233;28;20046;-68
2022/11/20 05:55:41;;;;;;;25.90;20.33;;;;;;;;;;9991205;28;20517;-68
2022/11/20 06:00:35;;;;;;;27.98;21.98;;;;;;;;;;9990676;28;20055;-66
2022/11/20 06:05:28;;;;;;;26.25;20.63;;;;;;;;;;9988892;28;20053;-67
2022/11/20 06:10:22;;;;;;;25.70;21.73;;;;;;;;;;9987728;28;20055;-67
2022/11/20 06:15:17;;;;;;;29.92;21.00;;;;;;;;;;9969901;28;20062;-67
2022/11/20 06:20:10;;;;;;;21.35;17.15;;;;;;;;;;9968012;28;20573;-67
2022/11/20 06:25:05;;;;;;;21.88;19.30;;;;;;;;;;9969049;28;20087;-67
2022/11/20 06:29:59;;;;;;;26.25;19.77;;;;;;;;;;9987047;28;20070;-67
2022/11/20 06:34:53;;;;;;;24.63;17.23;;;;;;;;;;9985238;28;20050;-67
2022/11/20 06:39:47;;;;;;;23.23;16.63;;;;;;;;;;9983625;28;20417;-68
2022/11/20 06:44:41;;;;;;;20.70;17.65;;;;;;;;;;9988606;28;20056;-68
2022/11/20 06:49:36;;;;;;;22.08;16.33;;;;;;;;;;9985484;28;20524;-68
2022/11/20 06:54:30;;;;;;;21.17;16.52;;;;;;;;;;9984806;28;20102;-68
2022/11/20 06:59:24;;;;;;;19.40;14.20;;;;;;;;;;9985953;28;20097;-67
2022/11/20 07:04:18;;;;;;;17.95;15.18;;;;;;;;;;9987474;28;20054;-67
2022/11/20 07:09:12;;;;;;;21.30;16.33;;;;;;;;;;9987125;28;20093;-67
2022/11/20 07:14:07;;;;;;;23.52;19.27;;;;;;;;;;9987179;28;20054;-67
2022/11/20 07:19:01;;;;;;;46.75;16.60;;;;;;;;;;9987381;28;20413;-67
2022/11/20 07:23:56;;;;;;;152.85;24.73;;;;;;;;;;9985247;28;20078;-66
2022/11/20 07:28:50;;;;;;;63.03;23.15;;;;;;;;;;9985683;28;20133;-67
2022/11/20 07:33:44;;;;;;;23.63;18.80;;;;;;;;;;9980972;28;20078;-66
2022/11/20 07:38:38;;;;;;;24.92;20.80;;;;;;;;;;9987020;28;20462;-66
2022/11/20 07:43:32;;;;;;;25.27;21.08;;;;;;;;;;9987500;28;20058;-67
2022/11/20 07:48:33;;;;;;;21.60;18.67;;;;;;;;;;9985894;28;20505;-66
2022/11/20 07:53:27;;;;;;;24.45;20.35;;;;;;;;;;9985546;28;20046;-63
2022/11/20 07:58:21;;;;;;;22.75;19.02;;;;;;;;;;9983752;28;20141;-71
2022/11/20 08:03:16;;;;;;;26.35;21.45;;;;;;;;;;9987031;28;20085;-62
2022/11/20 08:08:17;;;;;;;27.33;21.58;;;;;;;;;;9982684;28;20129;-65
2022/11/20 08:18:22;;;;;;;25.27;18.95;;;;;;;;;;9988502;28;20055;-68
2022/11/20 08:23:24;;;;;;;24.00;17.90;;;;;;;;;;9969118;28;20121;-68
2022/11/20 08:28:17;;;;;;;23.60;19.60;;;;;;;;;;9986137;28;20054;-68
2022/11/20 08:33:14;;;;;;;26.88;19.63;;;;;;;;;;9986097;28;20450;-68
2022/11/20 08:38:08;;;;;;;31.13;21.73;;;;;;;;;;9986240;28;20049;-68
2022/11/20 08:43:02;;;;;;;48.10;29.15;;;;;;;;;;9967725;28;20089;-68
2022/11/20 08:48:00;;;;;;;41.55;29.58;;;;;;;;;;9986454;28;20054;-67
2022/11/20 08:52:54;;;;;;;30.10;23.40;;;;;;;;;;9986345;28;20464;-67
2022/11/20 08:57:49;;;;;;;34.85;22.88;;;;;;;;;;9986233;28;20408;-66
2022/11/20 09:02:44;;;;;;;26.42;21.17;;;;;;;;;;9988124;28;20073;-67
2022/11/20 09:07:41;;;;;;;27.63;20.17;;;;;;;;;;9992606;28;20065;-67
2022/11/20 09:12:35;;;;;;;23.38;17.42;;;;;;;;;;9992596;28;20050;-68
2022/11/20 09:17:30;;;;;;;18.38;14.80;;;;;;;;;;9990575;28;20054;-67
2022/11/20 09:22:24;;;;;;;21.42;13.82;;;;;;;;;;9990638;28;20501;-68
2022/11/20 09:27:21;;;;;;;18.02;15.13;;;;;;;;;;9990772;28;20395;-67
2022/11/20 09:32:14;;;;;;;23.67;15.45;;;;;;;;;;9991669;28;20063;-68
2022/11/20 09:37:08;;;;;;;19.98;14.30;;;;;;;;;;9991941;28;20050;-68
2022/11/20 09:42:11;;;;;;;27.02;16.02;;;;;;;;;;9991991;28;20397;-67
2022/11/20 09:47:37;;;;;;;27.77;17.15;;;;;;;;;;9991670;28;20461;-67
2022/11/20 09:53:08;;;;;;;23.60;17.08;;;;;;;;;;9991619;28;20056;-67
2022/11/20 09:58:01;;;;;;;27.15;19.83;;;;;;;;;;9985908;28;20050;-68
2022/11/20 10:03:19;;;;;;;25.38;17.33;;;;;;;;;;9990157;28;20129;-66
2022/11/20 10:08:25;;;;;;;22.50;18.60;;;;;;;;;;9987674;28;20429;-66
2022/11/20 10:14:16;;;;;;;29.38;21.58;;;;;;;;;;9990913;28;20054;-66
2022/11/20 10:19:31;;;;;;;27.80;19.83;;;;;;;;;;9832106;29;20051;-67
2022/11/20 10:24:41;;;;;;;26.25;19.75;;;;;;;;;;9960900;28;20054;-67
2022/11/20 10:30:07;;;;;;;26.85;19.00;;;;;;;;;;9989592;28;20066;-67
2022/11/20 10:35:19;;;;;;;29.38;20.20;;;;;;;;;;9970205;28;20082;-68
2022/11/20 10:40:44;;;;;;;26.55;20.73;;;;;;;;;;9989178;28;20066;-66
2022/11/20 10:46:07;;;;;;;24.98;20.65;;;;;;;;;;9994002;28;20438;-65
2022/11/20 10:51:15;;;;;;;28.88;21.00;;;;;;;;;;9989944;28;20054;-66
2022/11/20 10:56:17;;;;;;;34.00;23.33;;;;;;;;;;9989899;28;20129;-66
2022/11/20 11:01:17;;;;;;;30.20;22.02;;;;;;;;;;9987256;28;20074;-65
2022/11/20 11:06:39;;;;;;;31.13;22.27;;;;;;;;;;9985658;28;20046;-66
2022/11/20 11:11:34;;;;;;;32.92;21.27;;;;;;;;;;9987083;28;20070;-66
2022/11/20 11:16:54;;;;;;;35.17;24.38;;;;;;;;;;9988048;28;20053;-64
2022/11/20 11:21:50;;;;;;;37.67;26.92;;;;;;;;;;9987711;28;20444;-65
2022/11/20 11:26:57;;;;;;;34.60;26.95;;;;;;;;;;9987641;28;20065;-65
2022/11/20 11:31:51;;;;;;;39.42;27.42;;;;;;;;;;9986411;28;20468;-65
2022/11/20 11:36:55;;;;;;;41.22;30.08;;;;;;;;;;9988646;28;20058;-65
2022/11/20 11:41:49;;;;;;;43.40;27.88;;;;;;;;;;9971446;28;20149;-64
2022/11/20 11:46:56;;;;;;;42.83;29.20;;;;;;;;;;9987685;28;20058;-64
2022/11/20 11:52:13;;;;;;;43.25;30.30;;;;;;;;;;9975330;28;20042;-63
2022/11/20 11:57:23;;;;;;;43.10;30.92;;;;;;;;;;9980679;28;20046;-64
2022/11/20 12:02:28;;;;;;;41.28;29.85;;;;;;;;;;9966982;28;20061;-65
2022/11/20 12:07:44;;;;;;;43.30;29.20;;;;;;;;;;9984521;28;20085;-64
2022/11/20 12:12:44;;;;;;;43.60;30.90;;;;;;;;;;9985575;28;20047;-64
2022/11/20 12:17:38;;;;;;;44.70;31.60;;;;;;;;;;9985931;28;20133;-64
2022/11/20 12:22:58;;;;;;;45.40;30.77;;;;;;;;;;9985839;28;20050;-64
2022/11/20 12:28:09;;;;;;;39.63;26.42;;;;;;;;;;9985927;28;20042;-65
2022/11/20 12:33:46;;;;;;;41.33;28.58;;;;;;;;;;9986918;28;20050;-65
2022/11/20 12:38:46;;;;;;;45.72;33.13;;;;;;;;;;9991172;28;20456;-66
2022/11/20 12:49:38;;;;;;;104.05;67.40;;;;;;;;;;9974057;28;20046;-64
2022/11/20 12:54:52;;;;;;;58.57;39.33;;;;;;;;;;9977495;28;20053;-64
2022/11/20 12:59:51;;;;;;;96.18;61.78;;;;;;;;;;9990279;28;20505;-64
2022/11/20 13:05:05;;;;;;;44.53;29.15;;;;;;;;;;9992858;28;20469;-65
2022/11/20 13:09:59;;;;;;;53.28;31.42;;;;;;;;;;9992091;28;20428;-64
2022/11/20 13:15:16;;;;;;;49.67;35.20;;;;;;;;;;9992292;28;20050;-64
2022/11/20 13:20:16;;;;;;;41.47;28.30;;;;;;;;;;9992658;28;20417;-64
2022/11/20 13:25:22;;;;;;;41.60;27.55;;;;;;;;;;9972231;28;20061;-66
2022/11/20 13:30:18;;;;;;;48.53;32.47;;;;;;;;;;9992611;28;20109;-63
2022/11/20 13:35:13;;;;;;;224.38;130.48;;;;;;;;;;9971778;28;20429;-66
2022/11/20 13:40:10;;;;;;;39.50;28.95;;;;;;;;;;9990175;28;20054;-63
2022/11/20 13:45:11;;;;;;;38.15;27.10;;;;;;;;;;9991277;28;20061;-63
2022/11/20 13:50:09;;;;;;;39.60;28.05;;;;;;;;;;9991077;28;20234;-66
2022/11/20 13:55:16;;;;;;;43.45;28.52;;;;;;;;;;9990194;28;20129;-63
2022/11/20 14:00:18;;;;;;;41.63;28.15;;;;;;;;;;9989862;28;20461;-62
2022/11/20 14:05:22;;;;;;;39.00;28.20;;;;;;;;;;9988357;28;20419;-62
2022/11/20 14:10:48;;;;;;;38.47;29.27;;;;;;;;;;9990835;28;20156;-63
2022/11/20 14:15:42;;;;;;;46.20;30.35;;;;;;;;;;9990715;28;20093;-63
2022/11/20 14:20:38;;;;;;;36.42;27.23;;;;;;;;;;9989493;28;20689;-66
2022/11/20 14:25:31;;;;;;;36.53;26.63;;;;;;;;;;9981603;28;20074;-64
2022/11/20 14:30:44;;;;;;;36.35;28.65;;;;;;;;;;9987497;28;20086;-63
2022/11/20 14:35:43;;;;;;;36.78;27.65;;;;;;;;;;9988477;28;20531;-63
2022/11/20 14:40:38;;;;;;;45.72;30.02;;;;;;;;;;9990124;28;20050;-62
2022/11/20 14:45:32;;;;;;;40.53;26.15;;;;;;;;;;9991003;28;20058;-63
2022/11/20 14:50:27;;;;;;;40.45;28.42;;;;;;;;;;9985224;28;20528;-64
2022/11/20 14:55:32;;;;;;;46.10;30.27;;;;;;;;;;9977506;28;20100;-65
2022/11/20 15:00:25;;;;;;;45.03;28.98;;;;;;;;;;9986298;28;20454;-65
2022/11/20 15:05:44;;;;;;;41.40;27.35;;;;;;;;;;9987344;28;20070;-64
2022/11/20 15:10:38;;;;;;;42.55;29.42;;;;;;;;;;9964557;28;20476;-69
2022/11/20 15:15:38;;;;;;;40.22;29.73;;;;;;;;;;9988481;28;20437;-66
2022/11/20 15:20:32;;;;;;;40.17;26.92;;;;;;;;;;9986400;28;20125;-65
2022/11/20 15:25:25;;;;;;;38.13;29.02;;;;;;;;;;9967704;28;20052;-65
2022/11/20 15:30:20;;;;;;;39.33;31.17;;;;;;;;;;9983652;28;20053;-65
2022/11/20 15:35:15;;;;;;;45.35;32.20;;;;;;;;;;9984762;28;20062;-66
2022/11/20 15:40:10;;;;;;;41.33;29.40;;;;;;;;;;9985731;28;20137;-65
2022/11/20 15:45:05;;;;;;;52.13;36.22;;;;;;;;;;9984934;28;20054;-66
2022/11/20 15:49:59;;;;;;;68.05;51.38;;;;;;;;;;9987741;28;20104;-65
2022/11/20 15:54:53;;;;;;;75.03;50.83;;;;;;;;;;9986976;28;20064;-65
2022/11/20 15:59:47;;;;;;;57.97;43.92;;;;;;;;;;9986033;28;20057;-65
2022/11/20 16:04:41;;;;;;;53.72;37.42;;;;;;;;;;9986794;28;20089;-64
2022/11/20 16:09:35;;;;;;;58.28;41.45;;;;;;;;;;9986665;28;20054;-65
2022/11/20 16:19:41;;;;;;;60.55;42.53;;;;;;;;;;9987167;28;20046;-63
2022/11/20 16:24:35;;;;;;;46.80;35.05;;;;;;;;;;9985344;28;20085;-64
2022/11/20 16:29:29;;;;;;;44.35;33.53;;;;;;;;;;9982211;28;20492;-63
2022/11/20 16:34:23;;;;;;;45.83;32.15;;;;;;;;;;9987361;28;20085;-66
2022/11/20 16:39:17;;;;;;;54.00;41.08;;;;;;;;;;9990125;28;20062;-63
2022/11/20 16:44:16;;;;;;;64.03;44.03;;;;;;;;;;9986854;28;20050;-63
2022/11/20 16:49:14;;;;;;;59.58;38.47;;;;;;;;;;9986740;28;20669;-65
2022/11/20 16:54:08;;;;;;;61.80;39.78;;;;;;;;;;9987060;28;20043;-65
2022/11/20 16:59:02;;;;;;;53.03;38.20;;;;;;;;;;9986737;28;20042;-65
2022/11/20 17:04:17;;;;;;;56.38;39.13;;;;;;;;;;9986915;28;20053;-65
2022/11/20 17:09:11;;;;;;;47.15;34.70;;;;;;;;;;9982797;28;20081;-65
2022/11/20 17:14:08;;;;;;;50.88;35.13;;;;;;;;;;9986013;28;20097;-65
2022/11/20 17:19:04;;;;;;;58.67;37.85;;;;;;;;;;9986095;28;20441;-65
2022/11/20 17:24:02;;;;;;;62.78;42.30;;;;;;;;;;9991738;28;20081;-64
2022/11/20 17:29:24;;;;;;;53.22;38.17;;;;;;;;;;9986998;28;20058;-65
2022/11/20 17:34:17;;;;;;;57.28;38.65;;;;;;;;;;9993630;28;20093;-65
2022/11/20 17:39:14;;;;;;;57.92;44.08;;;;;;;;;;9992938;28;20549;-64
2022/11/20 17:44:12;;;;;;;59.95;41.78;;;;;;;;;;9991141;28;20042;-65
2022/11/20 17:49:06;;;;;;;59.33;42.00;;;;;;;;;;9991568;28;20473;-65
2022/11/20 17:54:01;;;;;;;53.55;40.13;;;;;;;;;;9990056;28;20445;-65
2022/11/20 17:58:54;;;;;;;52.58;39.90;;;;;;;;;;9990961;28;20062;-65
2022/11/20 18:03:48;;;;;;;58.40;41.95;;;;;;;;;;9989949;28;20066;-65
2022/11/20 18:08:42;;;;;;;66.53;47.15;;;;;;;;;;9990815;28;20046;-66
2022/11/20 18:18:48;;;;;;;67.20;48.00;;;;;;;;;;9986568;28;20046;-64
2022/11/20 18:23:43;;;;;;;68.57;46.28;;;;;;;;;;9973062;28;20484;-66
2022/11/20 18:28:40;;;;;;;54.20;40.08;;;;;;;;;;9990127;28;20054;-64
2022/11/20 18:33:33;;;;;;;56.90;40.17;;;;;;;;;;9989605;28;20050;-65
2022/11/20 18:38:27;;;;;;;57.45;40.63;;;;;;;;;;9989383;28;20069;-64
2022/11/20 18:48:33;;;;;;;56.10;41.35;;;;;;;;;;9989517;28;20087;-64
2022/11/20 18:53:27;;;;;;;52.75;39.20;;;;;;;;;;9990043;28;20093;-64
2022/11/20 18:58:20;;;;;;;55.35;39.70;;;;;;;;;;9988958;28;20050;-64
2022/11/20 19:03:15;;;;;;;62.88;41.42;;;;;;;;;;9989935;28;20100;-63
2022/11/20 19:08:08;;;;;;;62.83;45.03;;;;;;;;;;9985473;28;20054;-64
2022/11/20 19:13:03;;;;;;;109.20;81.70;;;;;;;;;;9989228;28;20062;-66
2022/11/20 19:18:00;;;;;;;113.35;73.07;;;;;;;;;;9986289;28;20185;-65
2022/11/20 19:22:52;;;;;;;75.88;56.17;;;;;;;;;;9967767;28;20054;-63
2022/11/20 19:27:47;;;;;;;82.35;59.95;;;;;;;;;;9986212;28;20050;-60
2022/11/20 19:32:41;;;;;;;75.78;56.97;;;;;;;;;;9987759;28;20529;-60
2022/11/20 19:37:35;;;;;;;65.85;50.95;;;;;;;;;;9987238;28;20402;-62
2022/11/20 19:42:29;;;;;;;63.47;45.42;;;;;;;;;;9985176;28;20536;-61
2022/11/20 19:47:23;;;;;;;67.85;48.50;;;;;;;;;;9984573;28;20074;-61
2022/11/20 19:52:36;;;;;;;76.50;54.47;;;;;;;;;;9986307;28;20378;-60
2022/11/20 19:57:30;;;;;;;71.20;52.83;;;;;;;;;;9986864;28;20050;-60
2022/11/20 20:02:24;;;;;;;59.40;43.30;;;;;;;;;;9982853;28;20241;-61
2022/11/20 20:07:19;;;;;;;50.22;37.50;;;;;;;;;;9988651;28;20078;-62
2022/11/20 20:12:13;;;;;;;45.60;35.83;;;;;;;;;;9985414;28;20058;-62
2022/11/20 20:17:07;;;;;;;45.20;35.97;;;;;;;;;;9988546;28;20105;-62
2022/11/20 20:22:01;;;;;;;44.80;36.50;;;;;;;;;;9984910;28;20053;-62
2022/11/20 20:26:55;;;;;;;51.30;38.47;;;;;;;;;;9985346;28;20046;-64
2022/11/20 20:31:50;;;;;;;39.40;30.55;;;;;;;;;;9986950;28;20054;-62
2022/11/20 20:36:45;;;;;;;39.72;29.92;;;;;;;;;;9985900;28;20401;-63
2022/11/20 20:41:39;;;;;;;47.35;33.47;;;;;;;;;;9983918;28;20054;-61
2022/11/20 20:46:33;;;;;;;38.85;30.60;;;;;;;;;;9985795;28;20125;-60
2022/11/20 20:51:26;;;;;;;41.35;32.67;;;;;;;;;;9983916;28;20050;-61
2022/11/20 20:56:21;;;;;;;43.00;31.95;;;;;;;;;;9985144;28;20161;-60
2022/11/20 21:01:16;;;;;;;45.65;33.90;;;;;;;;;;9991331;28;20054;-60
2022/11/20 21:06:11;;;;;;;78.57;53.42;;;;;;;;;;9992839;28;20046;-62
2022/11/20 21:11:05;;;;;;;59.83;45.75;;;;;;;;;;9991640;28;20149;-61
2022/11/20 21:15:59;;;;;;;84.85;60.38;;;;;;;;;;9993287;28;20078;-62
2022/11/20 21:26:07;;;;;;;58.42;42.20;;;;;;;;;;9990245;28;20062;-63
2022/11/20 21:31:11;;;;;;;47.75;38.45;;;;;;;;;;9991064;28;20138;-62
2022/11/20 21:36:06;;;;;;;41.80;31.55;;;;;;;;;;9989944;28;20081;-62
2022/11/20 21:40:59;;;;;;;31.70;24.63;;;;;;;;;;9991214;28;20052;-62
2022/11/20 21:45:55;;;;;;;26.55;21.77;;;;;;;;;;9991969;28;20108;-62
2022/11/20 21:50:49;;;;;;;32.70;24.60;;;;;;;;;;9990303;28;20133;-62
2022/11/20 21:55:42;;;;;;;33.55;24.73;;;;;;;;;;9990289;28;20093;-64
2022/11/20 22:00:36;;;;;;;33.28;24.73;;;;;;;;;;9991648;28;20058;-63
2022/11/20 22:05:31;;;;;;;37.95;29.83;;;;;;;;;;9991555;28;20129;-62
2022/11/20 22:10:26;;;;;;;38.58;29.63;;;;;;;;;;9989453;28;20413;-62
2022/11/20 22:15:20;;;;;;;46.30;35.63;;;;;;;;;;9990089;28;20055;-62
2022/11/20 22:20:34;;;;;;;45.25;35.15;;;;;;;;;;9990272;28;20046;-61
2022/11/20 22:25:28;;;;;;;53.20;35.17;;;;;;;;;;9990851;28;20274;-62
2022/11/20 22:30:22;;;;;;;56.63;39.20;;;;;;;;;;9988436;28;20070;-62
2022/11/20 22:35:16;;;;;;;43.70;34.80;;;;;;;;;;9990443;28;20046;-62
2022/11/20 22:40:09;;;;;;;38.88;29.70;;;;;;;;;;9988560;28;20042;-63
2022/11/20 22:45:07;;;;;;;40.65;30.95;;;;;;;;;;9987266;28;20122;-62
2022/11/20 22:50:03;;;;;;;40.88;29.75;;;;;;;;;;9988221;28;20120;-62
2022/11/20 22:54:58;;;;;;;39.65;30.70;;;;;;;;;;9991529;28;20056;-62
2022/11/20 22:59:52;;;;;;;40.85;29.63;;;;;;;;;;9998554;28;20050;-62
2022/11/20 23:04:46;;;;;;;39.60;28.08;;;;;;;;;;9995467;28;20038;-62
2022/11/20 23:09:39;;;;;;;37.92;27.42;;;;;;;;;;9997049;28;20133;-63
2022/11/20 23:14:33;;;;;;;32.13;26.73;;;;;;;;;;9996174;28;20054;-62
2022/11/20 23:19:27;;;;;;;33.30;26.10;;;;;;;;;;9998512;28;20129;-62
2022/11/20 23:24:21;;;;;;;33.90;25.55;;;;;;;;;;9998233;28;20133;-62
2022/11/20 23:29:15;;;;;;;37.97;28.02;;;;;;;;;;9985808;28;20560;-63
2022/11/20 23:34:09;;;;;;;36.92;26.08;;;;;;;;;;9989884;28;20046;-63
2022/11/20 23:39:04;;;;;;;27.83;22.45;;;;;;;;;;9989253;28;20058;-63
2022/11/20 23:43:58;;;;;;;25.42;21.67;;;;;;;;;;9988912;28;20113;-63
2022/11/20 23:48:51;;;;;;;29.50;25.15;;;;;;;;;;9989160;28;20569;-62
2022/11/20 23:53:45;;;;;;;28.65;25.55;;;;;;;;;;9989392;28;20050;-63
2022/11/20 23:58:40;;;;;;;28.73;24.67;;;;;;;;;;9988816;28;20445;-62
